createdAt,value
2018-08-09T08:32:54.687Z,5.45
2018-08-09T08:35:27.094Z,5.47
2018-08-09T08:37:59.761Z,5.17
2018-08-09T08:40:32.414Z,5.65
2018-08-09T08:43:05.051Z,5.00
2018-08-09T08:45:37.507Z,5.65
2018-08-09T08:48:09.911Z,5.30
2018-08-09T08:50:42.325Z,5.20
2018-08-09T08:53:14.740Z,5.55
2018-08-09T08:55:47.152Z,5.92
2018-08-09T08:58:19.570Z,5.97
2018-08-09T09:00:52.058Z,6.10
2018-08-09T09:03:24.414Z,5.70
2018-08-09T09:05:56.891Z,6.75
2018-08-09T09:08:29.366Z,6.28
2018-08-09T09:11:02.121Z,6.58
2018-08-09T09:13:34.879Z,6.62
2018-08-09T09:16:07.299Z,5.92
2018-08-09T09:18:40.553Z,5.85
2018-08-09T09:21:12.982Z,5.55
2018-08-09T09:23:45.707Z,5.60
2018-08-09T09:26:18.428Z,5.92
2018-08-09T09:28:51.163Z,5.58
2018-08-09T09:31:23.888Z,5.45
2018-08-09T09:33:56.633Z,6.35
2018-08-09T09:36:29.047Z,5.83
2018-08-09T09:39:01.462Z,5.92
2018-08-09T09:41:33.909Z,6.10
2018-08-09T09:44:06.359Z,5.67
2018-08-09T09:46:38.785Z,5.28
2018-08-09T09:49:11.198Z,5.20
2018-08-09T09:51:43.638Z,5.67
2018-08-09T09:54:16.037Z,5.70
2018-08-09T09:56:48.730Z,5.65
2018-08-09T09:59:21.144Z,6.45
2018-08-09T10:01:53.577Z,5.90
2018-08-09T10:04:26.529Z,5.83
2018-08-09T10:06:59.289Z,6.03
2018-08-09T10:09:31.653Z,5.58
2018-08-09T10:12:04.078Z,4.67
2018-08-09T10:14:36.501Z,5.53
2018-08-09T10:17:09.032Z,5.33
2018-08-09T10:19:41.479Z,4.92
2018-08-09T10:22:14.389Z,5.00
2018-08-09T10:24:46.864Z,5.53
2018-08-09T10:27:19.338Z,5.60
2018-08-09T10:29:52.025Z,5.67
2018-08-09T10:32:24.402Z,5.55
2018-08-09T10:34:56.819Z,5.47
2018-08-09T10:37:29.244Z,5.97
2018-08-09T10:40:01.707Z,5.83
2018-08-09T10:42:34.391Z,6.37
2018-08-09T10:45:06.862Z,6.10
2018-08-09T10:47:39.334Z,5.12
2018-08-09T10:50:11.722Z,5.78
2018-08-09T10:52:44.145Z,5.55
2018-08-09T10:55:16.537Z,5.67
2018-08-09T10:57:48.945Z,5.58
2018-08-09T11:00:21.337Z,5.50
2018-08-09T11:02:54.388Z,5.78
2018-08-09T11:05:26.769Z,5.75
2018-08-09T11:07:59.204Z,5.47
2018-08-09T11:10:31.909Z,5.30
2018-08-09T11:13:04.309Z,5.45
2018-08-09T11:15:37.023Z,5.67
2018-08-09T11:18:09.719Z,6.08
2018-08-09T11:20:42.420Z,5.67
2018-08-09T11:23:15.069Z,5.15
2018-08-09T11:25:47.471Z,5.80
2018-08-09T11:28:20.150Z,6.00
2018-08-09T11:30:52.545Z,5.60
2018-08-09T11:33:24.953Z,5.17
2018-08-09T11:35:57.365Z,5.30
2018-08-09T11:38:29.761Z,5.05
2018-08-09T11:41:02.419Z,5.40
2018-08-09T11:43:35.169Z,5.10
2018-08-09T11:46:07.578Z,5.10
2018-08-09T11:48:40.323Z,6.25
2018-08-09T11:51:12.737Z,6.08
2018-08-09T11:53:45.161Z,5.15
2018-08-09T11:56:17.642Z,5.78
2018-08-09T11:58:50.041Z,5.70
2018-08-09T12:01:22.505Z,5.97
2018-08-09T12:03:55.168Z,6.30
2018-08-09T12:06:27.582Z,5.33
2018-08-09T12:09:00.250Z,5.40
2018-08-09T12:11:32.677Z,5.12
2018-08-09T12:14:05.397Z,6.55
2018-08-09T12:16:38.037Z,5.40
2018-08-09T12:19:10.555Z,5.92
2018-08-09T12:21:42.963Z,5.60
2018-08-09T12:24:15.533Z,5.47
2018-08-09T12:26:48.208Z,5.87
2018-08-09T12:29:20.646Z,6.20
2018-08-09T12:31:53.333Z,5.70
2018-08-09T12:34:26.085Z,5.85
2018-08-09T12:36:58.494Z,5.85
2018-08-09T12:39:30.913Z,5.22
2018-08-09T12:42:03.332Z,5.65
2018-08-09T12:44:36.115Z,6.25
2018-08-09T12:47:08.864Z,5.55
2018-08-09T12:49:41.287Z,5.95
2018-08-09T12:52:13.702Z,6.35
2018-08-09T12:54:46.393Z,5.42
2018-08-09T12:57:19.053Z,5.65
2018-08-09T12:59:51.540Z,5.15
2018-08-09T13:02:24.213Z,5.10
2018-08-09T13:04:56.897Z,5.05
2018-08-09T13:07:29.410Z,5.22
2018-08-09T13:10:02.080Z,4.90
2018-08-09T13:12:34.707Z,4.78
2018-08-09T13:15:09.266Z,4.75
2018-08-09T13:17:42.653Z,5.87
2018-08-09T13:20:15.725Z,5.70
2018-08-09T13:22:48.127Z,5.87
2018-08-09T13:25:20.566Z,4.70
2018-08-09T13:27:53.286Z,5.40
2018-08-09T13:30:25.720Z,4.95
2018-08-09T13:32:58.444Z,5.10
2018-08-09T13:35:31.122Z,5.35
2018-08-09T13:38:03.561Z,5.42
2018-08-09T13:40:36.010Z,5.40
2018-08-09T13:43:08.423Z,4.83
2018-08-09T13:45:40.887Z,4.72
2018-08-09T13:48:13.293Z,5.50
2018-08-09T13:50:45.966Z,5.40
2018-08-09T13:53:18.645Z,5.10
2018-08-09T13:55:51.102Z,4.83
2018-08-09T13:58:23.820Z,4.67
2018-08-09T14:00:56.477Z,4.70
2018-08-09T14:03:29.176Z,5.17
2018-08-09T14:06:01.629Z,4.45
2018-08-09T14:08:34.057Z,4.50
2018-08-09T14:11:06.534Z,4.72
2018-08-09T14:13:39.052Z,4.80
2018-08-09T14:16:11.566Z,4.50
2018-08-09T14:18:43.978Z,4.90
2018-08-09T14:21:16.881Z,4.62
2018-08-09T14:23:49.309Z,4.47
2018-08-09T14:26:21.769Z,4.22
2018-08-09T14:28:54.510Z,4.15
2018-08-09T14:31:26.937Z,4.50
2018-08-09T14:33:59.361Z,4.03
2018-08-09T14:36:31.809Z,3.70
2018-08-09T14:39:07.873Z,3.58
2018-08-09T14:41:40.309Z,3.45
2018-08-09T14:44:12.763Z,3.72
2018-08-09T14:46:45.173Z,3.42
2018-08-09T14:49:17.683Z,3.37
2018-08-09T14:51:50.449Z,3.27
2018-08-09T14:54:22.889Z,3.00
2018-08-09T14:56:55.306Z,3.90
2018-08-09T14:59:27.738Z,3.50
2018-08-09T15:02:00.226Z,3.30
2018-08-09T15:04:32.732Z,3.60
2018-08-09T15:07:05.205Z,3.40
2018-08-09T15:09:37.680Z,3.42
2018-08-09T15:12:10.108Z,3.95
2018-08-09T15:14:42.533Z,3.77
2018-08-09T15:17:14.939Z,3.67
2018-08-09T15:19:47.361Z,3.58
2018-08-09T15:22:19.988Z,3.92
2018-08-09T15:24:52.413Z,3.98
2018-08-09T15:27:24.840Z,3.77
2018-08-09T15:29:57.267Z,3.60
2018-08-09T15:32:29.698Z,4.00
2018-08-09T15:35:02.114Z,3.42
2018-08-09T15:37:34.877Z,3.70
2018-08-09T15:40:08.055Z,2.87
2018-08-09T15:42:40.529Z,3.62
2018-08-09T15:45:13.651Z,3.60
2018-08-09T15:47:46.143Z,3.15
2018-08-09T15:50:18.493Z,3.15
2018-08-09T15:52:50.897Z,3.33
2018-08-09T15:55:23.310Z,3.50
2018-08-09T15:57:55.721Z,3.80
2018-08-09T16:00:28.163Z,3.40
2018-08-09T16:03:00.659Z,3.20
2018-08-09T16:05:33.317Z,3.67
2018-08-09T16:08:05.746Z,3.40
2018-08-09T16:10:38.389Z,3.50
2018-08-09T16:13:10.794Z,4.08
2018-08-09T16:15:43.217Z,4.53
2018-08-09T16:18:15.641Z,4.20
2018-08-09T16:20:48.060Z,3.80
2018-08-09T16:23:20.468Z,3.60
2018-08-09T16:25:52.889Z,3.10
2018-08-09T16:28:25.292Z,3.30
2018-08-09T16:30:57.709Z,3.40
2018-08-09T16:33:30.245Z,3.00
2018-08-09T16:36:02.719Z,3.50
2018-08-09T16:38:35.113Z,3.40
2018-08-09T16:41:07.513Z,2.92
2018-08-09T16:43:39.937Z,3.22
2018-08-09T16:46:12.676Z,3.10
2018-08-09T16:48:45.089Z,3.67
2018-08-09T16:51:17.517Z,3.55
2018-08-09T16:53:50.210Z,3.58
2018-08-09T16:56:23.265Z,3.47
2018-08-09T16:58:55.637Z,3.33
2018-08-09T17:01:28.057Z,3.17
2018-08-09T17:04:00.470Z,3.30
2018-08-09T17:06:32.886Z,2.65
2018-08-09T17:09:08.981Z,2.80
2018-08-09T17:11:41.736Z,2.10
2018-08-09T17:14:14.165Z,1.90
2018-08-09T17:16:46.810Z,2.10
2018-08-09T17:19:19.206Z,1.82
2018-08-09T17:21:52.243Z,2.17
2018-08-09T17:24:24.949Z,2.20
2018-08-09T17:26:57.366Z,1.95
2018-08-09T17:29:29.827Z,2.17
2018-08-09T17:32:02.268Z,1.62
2018-08-09T17:34:34.700Z,1.65
2018-08-09T17:37:07.105Z,1.50
2018-08-09T17:39:39.514Z,1.85
2018-08-09T17:42:11.950Z,1.85
2018-08-09T17:44:44.365Z,1.90
2018-08-09T17:47:17.086Z,1.62
2018-08-09T17:49:49.507Z,1.90
2018-08-09T17:52:22.383Z,2.00
2018-08-09T17:54:54.801Z,1.90
2018-08-09T17:57:27.225Z,1.50
2018-08-09T17:59:59.687Z,1.70
2018-08-09T18:02:32.111Z,1.60
2018-08-09T18:05:05.763Z,1.67
2018-08-09T18:07:38.288Z,1.85
2018-08-09T18:10:15.904Z,2.42
2018-08-09T18:12:48.370Z,1.85
2018-08-09T18:15:21.189Z,2.30
2018-08-09T18:17:53.693Z,1.60
2018-08-09T18:20:26.114Z,2.20
2018-08-09T18:22:58.925Z,2.10
2018-08-09T18:25:31.704Z,2.50
2018-08-09T18:28:04.375Z,3.65
2018-08-09T18:30:37.370Z,1.80
2018-08-09T18:33:09.825Z,1.93
2018-08-09T18:35:42.517Z,2.00
2018-08-09T18:38:14.966Z,1.82
2018-08-09T18:40:47.373Z,2.30
2018-08-09T18:43:19.835Z,2.02
2018-08-09T18:45:52.481Z,1.80
2018-08-09T18:48:25.192Z,2.40
2018-08-09T18:50:57.609Z,2.40
2018-08-09T18:53:30.078Z,2.57
2018-08-09T18:56:02.688Z,2.50
2018-08-09T18:58:35.370Z,2.33
2018-08-09T19:01:08.486Z,1.83
2018-08-09T19:03:41.238Z,2.23
2018-08-09T19:06:13.677Z,2.57
2018-08-09T19:08:46.118Z,2.43
2018-08-09T19:11:18.529Z,2.20
2018-08-09T19:13:50.961Z,2.50
2018-08-09T19:16:23.388Z,2.50
2018-08-09T19:18:55.905Z,2.70
2018-08-09T19:21:28.313Z,3.00
2018-08-09T19:24:01.057Z,3.27
2018-08-09T19:26:33.485Z,2.90
2018-08-09T19:29:06.214Z,2.20
2018-08-09T19:31:38.891Z,2.00
2018-08-09T19:34:11.568Z,2.23
2018-08-09T19:36:44.067Z,2.17
2018-08-09T19:39:16.565Z,2.23
2018-08-09T19:41:48.997Z,2.00
2018-08-09T19:44:21.734Z,1.80
2018-08-09T19:46:54.453Z,2.10
2018-08-09T19:49:26.875Z,2.17
2018-08-09T19:51:59.367Z,1.80
2018-08-09T19:54:31.830Z,2.00
2018-08-09T19:57:04.306Z,2.20
2018-08-09T19:59:36.770Z,2.20
2018-08-09T20:02:09.231Z,2.40
2018-08-09T20:04:41.992Z,2.50
2018-08-09T20:07:14.434Z,2.97
2018-08-09T20:09:47.094Z,2.50
2018-08-09T20:12:19.523Z,2.00
2018-08-09T20:14:51.971Z,2.60
2018-08-09T20:17:24.440Z,2.10
2018-08-09T20:19:56.870Z,1.90
2018-08-09T20:22:29.365Z,2.30
2018-08-09T20:25:01.991Z,2.20
2018-08-09T20:27:34.578Z,2.70
2018-08-09T20:30:11.258Z,3.00
2018-08-09T20:32:43.685Z,3.23
2018-08-09T20:35:20.090Z,2.83
2018-08-09T20:37:52.569Z,2.60
2018-08-09T20:40:24.986Z,2.07
2018-08-09T20:42:57.413Z,2.40
2018-08-09T20:45:29.839Z,3.10
2018-08-09T20:48:02.295Z,2.50
2018-08-09T20:50:34.686Z,3.03
2018-08-09T20:53:07.121Z,2.30
2018-08-09T20:55:39.604Z,2.27
2018-08-09T20:58:13.142Z,2.20
2018-08-09T21:00:46.140Z,1.63
2018-08-09T21:03:18.694Z,1.40
2018-08-09T21:05:51.266Z,1.70
2018-08-09T21:08:23.962Z,1.30
2018-08-09T21:10:56.445Z,1.40
2018-08-09T21:13:28.913Z,1.30
2018-08-09T21:16:01.390Z,1.40
2018-08-09T21:18:34.141Z,1.30
2018-08-09T21:21:06.805Z,2.30
2018-08-09T21:23:39.234Z,1.70
2018-08-09T21:26:11.758Z,2.03
2018-08-09T21:28:44.291Z,1.87
2018-08-09T21:31:17.086Z,2.43
2018-08-09T21:33:49.642Z,2.10
2018-08-09T21:36:22.099Z,2.20
2018-08-09T21:38:54.903Z,1.77
2018-08-09T21:41:27.742Z,1.23
2018-08-09T21:44:00.229Z,1.07
2018-08-09T21:46:32.717Z,1.10
2018-08-09T21:49:05.402Z,1.40
2018-08-09T21:51:37.845Z,1.43
2018-08-09T21:54:10.542Z,1.07
2018-08-09T21:56:42.995Z,1.30
2018-08-09T21:59:15.447Z,1.13
2018-08-09T22:01:47.900Z,1.20
2018-08-09T22:04:20.421Z,1.10
2018-08-09T22:06:53.170Z,1.00
2018-08-09T22:09:25.621Z,0.93
2018-08-09T22:11:58.055Z,1.10
2018-08-09T22:14:30.490Z,1.00
2018-08-09T22:17:02.897Z,1.10
2018-08-09T22:19:35.370Z,1.10
2018-08-09T22:22:07.791Z,1.50
2018-08-09T22:24:40.641Z,1.30
2018-08-09T22:27:13.204Z,1.20
2018-08-09T22:29:45.660Z,1.50
2018-08-09T22:32:18.511Z,1.20
2018-08-09T22:34:50.997Z,1.70
2018-08-09T22:37:23.450Z,1.60
2018-08-09T22:39:56.201Z,1.50
2018-08-09T22:42:28.875Z,1.30
2018-08-09T22:45:01.492Z,1.47
2018-08-09T22:47:34.018Z,1.63
2018-08-09T22:50:06.601Z,1.43
2018-08-09T22:52:39.027Z,1.60
2018-08-09T22:55:11.506Z,1.23
2018-08-09T22:57:43.929Z,1.30
2018-08-09T23:00:18.830Z,0.90
2018-08-09T23:02:51.253Z,1.13
2018-08-09T23:05:23.744Z,1.40
2018-08-09T23:07:56.177Z,1.10
2018-08-09T23:10:28.596Z,1.20
2018-08-09T23:13:01.034Z,1.00
2018-08-09T23:15:33.517Z,1.00
2018-08-09T23:18:06.090Z,1.10
2018-08-09T23:20:38.565Z,1.00
2018-08-09T23:23:10.950Z,1.20
2018-08-09T23:25:43.354Z,1.13
2018-08-09T23:28:16.283Z,1.07
2018-08-09T23:30:48.698Z,1.27
2018-08-09T23:33:21.588Z,1.00
2018-08-09T23:35:54.007Z,1.20
2018-08-09T23:38:26.389Z,1.20
2018-08-09T23:40:58.806Z,1.40
2018-08-09T23:43:31.195Z,1.43
2018-08-09T23:46:03.885Z,1.37
2018-08-09T23:48:36.274Z,1.50
2018-08-09T23:51:08.666Z,1.27
2018-08-09T23:53:41.051Z,1.37
2018-08-09T23:56:13.465Z,1.50
2018-08-09T23:58:45.853Z,1.23
